createdAt,value
2023-04-28T00:00:38.013Z,13.84
2023-04-28T00:03:05.239Z,13.83
2023-04-28T00:05:33.208Z,13.82
2023-04-28T00:08:00.225Z,13.79
2023-04-28T00:10:27.076Z,13.75
2023-04-28T00:12:53.890Z,13.74
2023-04-28T00:15:20.924Z,13.72
2023-04-28T00:17:48.112Z,13.73
2023-04-28T00:20:14.882Z,13.73
2023-04-28T00:22:41.814Z,13.74
2023-04-28T00:25:08.973Z,13.73
2023-04-28T00:27:35.940Z,13.72
2023-04-28T00:30:03.816Z,13.73
2023-04-28T00:32:30.993Z,13.76
2023-04-28T00:34:57.702Z,13.74
2023-04-28T00:37:24.551Z,13.70
2023-04-28T00:39:55.651Z,13.68
2023-04-28T00:42:22.882Z,13.68
2023-04-28T00:44:49.716Z,13.68
2023-04-28T00:47:17.291Z,13.70
2023-04-28T00:49:44.210Z,13.72
2023-04-28T00:52:11.384Z,13.73
2023-04-28T00:54:38.287Z,13.73
2023-04-28T00:57:05.139Z,13.72
2023-04-28T00:59:32.109Z,13.72
2023-04-28T01:01:59.596Z,13.72
2023-04-28T01:04:27.029Z,13.69
2023-04-28T01:06:54.426Z,13.67
2023-04-28T01:09:21.506Z,13.69
2023-04-28T01:11:48.992Z,13.71
2023-04-28T01:14:36.210Z,13.70
2023-04-28T01:17:03.438Z,13.70
2023-04-28T01:19:30.274Z,13.69
2023-04-28T01:21:57.255Z,13.67
2023-04-28T01:24:24.986Z,13.65
2023-04-28T01:26:51.726Z,13.65
2023-04-28T01:29:18.531Z,13.65
2023-04-28T01:31:45.549Z,13.64
2023-04-28T01:34:14.297Z,13.62
2023-04-28T01:36:42.161Z,13.64
2023-04-28T01:39:10.273Z,13.69
2023-04-28T01:41:37.276Z,13.74
2023-04-28T01:44:05.662Z,13.77
2023-04-28T01:46:32.784Z,13.78
2023-04-28T01:48:59.927Z,13.81
2023-04-28T01:51:26.814Z,13.82
2023-04-28T01:53:53.735Z,13.81
2023-04-28T01:56:20.886Z,13.77
2023-04-28T01:58:47.847Z,13.74
2023-04-28T02:01:15.582Z,13.72
2023-04-28T02:03:42.782Z,13.72
2023-04-28T02:06:10.637Z,13.72
2023-04-28T02:08:37.442Z,13.71
2023-04-28T02:11:04.378Z,13.72
2023-04-28T02:13:31.694Z,13.72
2023-04-28T02:16:01.974Z,13.75
2023-04-28T02:18:29.355Z,13.76
2023-04-28T02:21:11.217Z,13.76
2023-04-28T02:23:38.971Z,13.75
2023-04-28T02:26:06.026Z,13.73
2023-04-28T02:28:32.911Z,13.74
2023-04-28T02:31:04.733Z,13.73
2023-04-28T02:33:32.082Z,13.69
2023-04-28T02:36:00.133Z,13.68
2023-04-28T02:38:27.152Z,13.67
2023-04-28T02:41:01.286Z,13.64
2023-04-28T02:43:28.120Z,13.60
2023-04-28T02:45:55.144Z,13.59
2023-04-28T02:48:22.378Z,13.56
2023-04-28T02:50:49.481Z,13.57
2023-04-28T02:53:16.400Z,13.57
2023-04-28T02:55:43.334Z,13.57
2023-04-28T02:58:10.424Z,13.58
2023-04-28T03:00:37.233Z,13.59
2023-04-28T03:03:04.339Z,13.57
2023-04-28T03:05:31.307Z,13.54
2023-04-28T03:07:58.870Z,13.54
2023-04-28T03:10:25.848Z,13.55
2023-04-28T03:12:52.635Z,13.57
2023-04-28T03:15:19.519Z,13.60
2023-04-28T03:17:46.479Z,13.62
2023-04-28T03:20:13.430Z,13.61
2023-04-28T03:22:40.269Z,13.55
2023-04-28T03:25:07.872Z,13.52
2023-04-28T03:27:38.786Z,13.48
2023-04-28T03:30:06.483Z,13.41
2023-04-28T03:32:33.556Z,13.35
2023-04-28T03:35:00.387Z,13.33
2023-04-28T03:37:27.254Z,13.31
2023-04-28T03:39:54.263Z,13.31
2023-04-28T03:42:21.169Z,13.29
2023-04-28T03:45:08.500Z,13.29
2023-04-28T03:47:35.661Z,13.33
2023-04-28T03:50:02.718Z,13.34
2023-04-28T03:52:30.485Z,13.36
2023-04-28T03:54:57.388Z,13.38
2023-04-28T03:57:24.228Z,13.39
2023-04-28T03:59:51.612Z,13.42
2023-04-28T04:02:18.449Z,13.42
2023-04-28T04:04:45.492Z,13.42
2023-04-28T04:07:12.939Z,13.41
2023-04-28T04:09:40.180Z,13.42
2023-04-28T04:12:07.269Z,13.44
2023-04-28T04:14:34.225Z,13.44
2023-04-28T04:17:01.295Z,13.41
2023-04-28T04:19:28.365Z,13.39
2023-04-28T04:22:13.371Z,13.38
2023-04-28T04:25:08.084Z,13.34
2023-04-28T04:27:35.351Z,13.33
2023-04-28T04:30:02.278Z,13.31
2023-04-28T04:32:29.525Z,13.31
2023-04-28T04:34:56.910Z,13.32
2023-04-28T04:37:23.831Z,13.33
2023-04-28T04:39:56.999Z,13.38
2023-04-28T04:42:26.021Z,13.42
2023-04-28T04:45:08.524Z,13.43
2023-04-28T04:47:35.905Z,13.42
2023-04-28T04:50:03.062Z,13.42
2023-04-28T04:52:30.306Z,13.42
2023-04-28T04:54:57.152Z,13.42
2023-04-28T04:57:24.590Z,13.42
2023-04-28T05:00:06.180Z,13.41
2023-04-28T05:02:33.600Z,13.40
2023-04-28T05:05:16.775Z,13.41
2023-04-28T05:07:51.653Z,13.43
2023-04-28T05:10:19.971Z,13.47
2023-04-28T05:12:48.922Z,13.50
2023-04-28T05:15:17.773Z,13.51
2023-04-28T05:17:52.726Z,13.51
2023-04-28T05:20:20.099Z,13.51
2023-04-28T05:22:46.967Z,13.52
2023-04-28T05:25:13.808Z,13.51
2023-04-28T05:27:40.673Z,13.52
2023-04-28T05:30:08.324Z,13.54
2023-04-28T05:32:35.918Z,13.57
2023-04-28T05:35:02.967Z,13.57
2023-04-28T05:37:30.276Z,13.53
2023-04-28T05:39:57.405Z,13.47
2023-04-28T05:42:24.305Z,13.48
2023-04-28T05:44:51.565Z,13.50
2023-04-28T05:47:18.793Z,13.51
2023-04-28T05:49:47.044Z,13.53
2023-04-28T05:52:15.526Z,13.57
2023-04-28T05:54:42.386Z,13.57
2023-04-28T05:57:09.190Z,13.55
2023-04-28T05:59:36.484Z,13.53
2023-04-28T06:02:03.576Z,13.52
2023-04-28T06:04:30.993Z,13.52
2023-04-28T06:06:58.293Z,13.48
2023-04-28T06:09:25.787Z,13.41
2023-04-28T06:11:53.546Z,13.35
2023-04-28T06:14:21.801Z,13.34
2023-04-28T06:16:48.563Z,13.37
2023-04-28T06:19:18.290Z,13.40
2023-04-28T06:21:45.920Z,13.47
2023-04-28T06:24:12.943Z,13.55
2023-04-28T06:26:41.108Z,13.60
2023-04-28T06:29:09.709Z,13.62
2023-04-28T06:31:36.582Z,13.63
2023-04-28T06:34:03.871Z,13.65
2023-04-28T06:36:30.956Z,13.67
2023-04-28T06:38:58.350Z,13.73
2023-04-28T06:41:25.201Z,13.73
2023-04-28T06:43:53.332Z,13.72
2023-04-28T06:46:24.879Z,13.66
2023-04-28T06:48:51.975Z,13.61
2023-04-28T06:51:18.835Z,13.61
2023-04-28T06:53:45.918Z,13.64
2023-04-28T06:56:13.638Z,13.68
2023-04-28T07:03:11.068Z,13.65
2023-04-28T07:05:43.187Z,13.62
2023-04-28T07:08:17.370Z,13.60
2023-04-28T07:10:44.338Z,13.58
2023-04-28T07:13:11.131Z,13.58
2023-04-28T07:15:38.406Z,13.58
2023-04-28T07:18:05.491Z,13.57
2023-04-28T07:20:32.354Z,13.55
2023-04-28T07:22:59.112Z,13.53
2023-04-28T07:25:26.633Z,13.49
2023-04-28T07:27:53.764Z,13.43
2023-04-28T07:30:27.896Z,13.40
2023-04-28T07:32:55.583Z,13.41
2023-04-28T07:35:23.269Z,13.41
2023-04-28T07:37:50.098Z,13.42
2023-04-28T07:40:17.042Z,13.43
2023-04-28T07:42:44.005Z,13.47
2023-04-28T07:45:11.120Z,13.51
2023-04-28T07:47:38.121Z,13.55
2023-04-28T07:50:06.261Z,13.59
2023-04-28T07:52:33.269Z,13.61
2023-04-28T07:55:00.232Z,13.61
2023-04-28T07:57:28.665Z,13.60
2023-04-28T07:59:55.555Z,13.57
2023-04-28T08:02:22.447Z,13.56
2023-04-28T08:04:49.645Z,13.58
2023-04-28T08:07:16.920Z,13.61
2023-04-28T08:09:46.819Z,13.63
2023-04-28T08:12:14.481Z,13.65
2023-04-28T08:14:41.655Z,13.70
2023-04-28T08:17:09.553Z,13.70
2023-04-28T08:19:36.677Z,13.69
2023-04-28T08:22:06.441Z,13.68
2023-04-28T08:24:36.220Z,13.71
2023-04-28T08:27:03.478Z,13.76
2023-04-28T08:29:31.410Z,13.83
2023-04-28T08:31:58.434Z,13.88
2023-04-28T08:34:25.229Z,13.92
2023-04-28T08:36:52.699Z,13.93
2023-04-28T08:39:23.280Z,13.95
2023-04-28T08:41:51.086Z,13.98
2023-04-28T08:44:18.352Z,14.02
2023-04-28T08:46:46.641Z,14.09
2023-04-28T08:49:17.683Z,14.16
2023-04-28T08:52:08.244Z,14.22
2023-04-28T08:54:35.881Z,14.22
2023-04-28T08:57:03.782Z,14.23
2023-04-28T08:59:30.815Z,14.27
2023-04-28T09:01:58.014Z,14.31
2023-04-28T09:04:25.430Z,14.34
2023-04-28T09:06:52.830Z,14.40
2023-04-28T09:09:21.332Z,14.43
2023-04-28T09:11:52.735Z,14.44
2023-04-28T09:14:19.580Z,14.48
2023-04-28T09:16:46.756Z,14.49
2023-04-28T09:19:14.783Z,14.50
2023-04-28T09:21:57.236Z,14.52
2023-04-28T09:24:30.970Z,14.53
2023-04-28T09:26:59.087Z,14.52
2023-04-28T09:29:25.905Z,14.54
2023-04-28T09:31:53.263Z,14.55
2023-04-28T09:34:21.637Z,14.54
2023-04-28T09:36:48.583Z,14.53
2023-04-28T09:39:27.470Z,14.52
2023-04-28T09:41:54.446Z,14.49
2023-04-28T09:44:21.278Z,14.45
2023-04-28T09:46:48.179Z,14.42
2023-04-28T09:49:15.058Z,14.39
2023-04-28T09:51:41.924Z,14.36
2023-04-28T09:54:08.736Z,14.37
2023-04-28T09:56:41.782Z,14.37
2023-04-28T09:59:08.573Z,14.35
2023-04-28T10:01:40.305Z,14.29
2023-04-28T10:04:07.509Z,14.23
2023-04-28T10:06:36.193Z,14.20
2023-04-28T10:09:03.278Z,14.22
2023-04-28T10:11:30.213Z,14.25
2023-04-28T10:13:57.050Z,14.26
2023-04-28T10:16:23.897Z,14.25
2023-04-28T10:18:50.756Z,14.25
2023-04-28T10:21:20.179Z,14.28
2023-04-28T10:24:00.055Z,14.30
2023-04-28T10:29:01.104Z,14.41
2023-04-28T10:31:27.971Z,14.40
2023-04-28T10:33:54.970Z,14.39
2023-04-28T10:36:46.848Z,14.40
2023-04-28T10:39:13.732Z,14.45
2023-04-28T10:41:41.265Z,14.51
2023-04-28T10:44:44.014Z,14.54
2023-04-28T10:47:11.015Z,14.51
2023-04-28T10:50:00.665Z,14.50
2023-04-28T10:52:48.178Z,14.51
2023-04-28T10:55:39.175Z,14.53
2023-04-28T10:58:14.793Z,14.54
2023-04-28T11:00:42.648Z,14.52
2023-04-28T11:03:09.535Z,14.53
2023-04-28T11:05:36.654Z,14.55
2023-04-28T11:08:18.435Z,14.57
2023-04-28T11:11:16.805Z,14.57
2023-04-28T11:13:46.431Z,14.53
2023-04-28T11:16:18.095Z,14.49
2023-04-28T11:18:55.843Z,14.45
2023-04-28T11:21:23.919Z,14.42
2023-04-28T11:23:50.812Z,14.41
2023-04-28T11:26:18.546Z,14.39
2023-04-28T11:28:48.547Z,14.40
2023-04-28T11:31:20.222Z,14.43
2023-04-28T11:33:50.212Z,14.43
2023-04-28T11:36:27.740Z,14.42
2023-04-28T11:38:56.567Z,14.42
2023-04-28T11:41:26.378Z,14.43
2023-04-28T11:43:53.336Z,14.44
2023-04-28T11:46:22.080Z,14.43
2023-04-28T11:48:54.895Z,14.43
2023-04-28T11:51:29.280Z,14.45
2023-04-28T11:53:55.882Z,14.44
2023-04-28T11:56:22.893Z,14.45
2023-04-28T11:59:04.333Z,14.46
2023-04-28T12:01:32.259Z,14.39
2023-04-28T12:03:59.662Z,14.33
2023-04-28T12:06:27.947Z,14.24
2023-04-28T12:08:55.295Z,14.19
2023-04-28T12:11:22.833Z,14.13
2023-04-28T12:14:03.723Z,14.11
2023-04-28T12:16:43.858Z,14.11
2023-04-28T12:19:11.118Z,14.08
2023-04-28T12:21:39.432Z,14.06
2023-04-28T12:24:20.658Z,14.02
2023-04-28T12:26:48.397Z,14.00
2023-04-28T12:29:40.469Z,13.96
2023-04-28T12:32:09.157Z,13.88
2023-04-28T12:34:36.834Z,13.81
2023-04-28T12:37:05.516Z,13.77
2023-04-28T12:39:35.280Z,13.74
2023-04-28T12:42:03.585Z,13.72
2023-04-28T12:44:35.069Z,13.70
2023-04-28T12:47:08.792Z,13.66
2023-04-28T12:49:35.836Z,13.57
2023-04-28T12:52:03.738Z,13.49
2023-04-28T12:54:30.836Z,13.48
2023-04-28T12:56:58.411Z,13.43
2023-04-28T12:59:25.326Z,13.41
2023-04-28T13:01:52.820Z,13.40
2023-04-28T13:04:21.152Z,13.40
2023-04-28T13:06:48.375Z,13.40
2023-04-28T13:09:15.363Z,13.40
2023-04-28T13:11:42.197Z,13.40
2023-04-28T13:14:09.166Z,13.40
2023-04-28T13:16:36.507Z,13.40
2023-04-28T13:19:03.988Z,13.37
2023-04-28T13:21:31.458Z,13.35
2023-04-28T13:23:58.522Z,13.27
2023-04-28T13:26:26.405Z,13.19
2023-04-28T13:28:53.299Z,13.15
2023-04-28T13:31:20.600Z,13.09
2023-04-28T13:33:47.671Z,13.03
2023-04-28T13:36:14.724Z,13.00
2023-04-28T13:38:43.682Z,12.95
2023-04-28T13:41:20.961Z,12.87
2023-04-28T13:43:49.231Z,12.77
2023-04-28T13:46:16.072Z,12.70
2023-04-28T13:48:43.024Z,12.63
2023-04-28T13:51:09.969Z,12.56
2023-04-28T13:53:37.878Z,12.50
2023-04-28T13:56:06.264Z,12.47
2023-04-28T13:58:33.226Z,12.47
2023-04-28T14:01:00.724Z,12.47
2023-04-28T14:03:28.620Z,12.47
2023-04-28T14:05:57.160Z,12.51
2023-04-28T14:08:25.473Z,12.53
2023-04-28T14:10:54.786Z,12.54
2023-04-28T14:13:21.726Z,12.55
2023-04-28T14:15:58.450Z,12.56
2023-04-28T14:18:28.016Z,12.57
2023-04-28T14:20:55.556Z,12.55
2023-04-28T14:23:22.908Z,12.52
2023-04-28T14:25:55.658Z,12.49
2023-04-28T14:28:23.222Z,12.49
2023-04-28T14:30:50.523Z,12.50
2023-04-28T14:33:17.648Z,12.52
2023-04-28T14:35:44.706Z,12.51
2023-04-28T14:38:13.149Z,12.47
2023-04-28T14:40:42.525Z,12.42
2023-04-28T14:43:09.515Z,12.40
2023-04-28T14:45:37.754Z,12.40
2023-04-28T14:48:06.512Z,12.42
2023-04-28T14:50:33.817Z,12.40
2023-04-28T14:53:05.081Z,12.35
2023-04-28T14:55:32.875Z,12.28
2023-04-28T14:57:59.791Z,12.19
2023-04-28T15:00:26.816Z,12.08
2023-04-28T15:02:54.209Z,11.98
2023-04-28T15:05:21.766Z,11.93
2023-04-28T15:07:48.593Z,11.90
2023-04-28T15:10:15.838Z,11.93
2023-04-28T15:12:43.575Z,11.93
2023-04-28T15:15:10.795Z,11.95
2023-04-28T15:17:39.305Z,11.96
2023-04-28T15:20:09.137Z,11.94
2023-04-28T15:22:37.120Z,11.92
2023-04-28T15:25:04.631Z,11.90
2023-04-28T15:27:32.277Z,11.86
2023-04-28T15:29:59.661Z,11.84
2023-04-28T15:32:29.779Z,11.80
2023-04-28T15:34:57.786Z,11.78
2023-04-28T15:37:37.110Z,11.73
2023-04-28T15:40:08.818Z,11.66
2023-04-28T15:42:37.161Z,11.58
2023-04-28T15:45:05.333Z,11.51
2023-04-28T15:47:33.592Z,11.48
2023-04-28T15:50:00.730Z,11.44
2023-04-28T15:52:28.322Z,11.39
2023-04-28T15:54:55.869Z,11.37
2023-04-28T15:57:23.775Z,11.36
2023-04-28T15:59:51.332Z,11.38
2023-04-28T16:02:21.751Z,11.40
2023-04-28T16:04:49.275Z,11.39
2023-04-28T16:07:16.819Z,11.38
2023-04-28T16:09:44.323Z,11.39
2023-04-28T16:12:42.976Z,11.41
2023-04-28T16:19:48.059Z,11.48
2023-04-28T16:22:41.621Z,11.48
2023-04-28T16:25:09.226Z,11.50
2023-04-28T16:27:39.992Z,11.52
2023-04-28T16:30:12.086Z,11.48
2023-04-28T16:32:40.514Z,11.48
2023-04-28T16:35:14.459Z,11.49
2023-04-28T16:44:19.838Z,11.43
2023-04-28T16:46:49.683Z,11.42
2023-04-28T16:49:18.376Z,11.39
2023-04-28T16:52:04.171Z,11.35
2023-04-28T16:54:31.709Z,11.36
2023-04-28T16:57:05.420Z,11.34
2023-04-28T16:59:33.524Z,11.33
2023-04-28T17:02:04.266Z,11.33
2023-04-28T17:04:32.444Z,11.32
2023-04-28T17:07:03.128Z,11.27
2023-04-28T17:09:32.656Z,11.24
2023-04-28T17:12:00.385Z,11.24
2023-04-28T17:14:27.255Z,11.24
2023-04-28T17:16:54.325Z,11.23
2023-04-28T17:19:21.843Z,11.25
2023-04-28T17:21:49.622Z,11.25
2023-04-28T17:24:22.374Z,11.22
2023-04-28T17:26:50.115Z,11.18
2023-04-28T17:29:17.427Z,11.16
2023-04-28T17:31:52.815Z,11.16
2023-04-28T17:34:19.630Z,11.15
2023-04-28T17:36:46.796Z,11.17
2023-04-28T17:39:15.565Z,11.17
2023-04-28T17:41:44.663Z,11.16
2023-04-28T17:44:11.620Z,11.13
2023-04-28T17:46:38.893Z,11.09
2023-04-28T17:49:06.024Z,11.06
2023-04-28T17:51:33.363Z,11.03
2023-04-28T17:54:00.633Z,10.99
2023-04-28T17:56:27.682Z,10.96
2023-04-28T17:58:54.629Z,10.94
2023-04-28T18:01:21.583Z,10.93
2023-04-28T18:03:48.523Z,10.92
2023-04-28T18:06:15.867Z,10.91
2023-04-28T18:08:46.341Z,10.90
2023-04-28T18:11:13.542Z,10.88
2023-04-28T18:13:40.732Z,10.88
2023-04-28T18:16:13.056Z,10.86
2023-04-28T18:18:44.611Z,10.85
2023-04-28T18:21:11.665Z,10.85
2023-04-28T18:23:38.854Z,10.86
2023-04-28T18:26:05.773Z,10.85
2023-04-28T18:28:33.414Z,10.84
2023-04-28T18:31:06.358Z,10.82
2023-04-28T18:33:36.038Z,10.79
2023-04-28T18:36:06.600Z,10.78
2023-04-28T18:59:55.296Z,10.87
2023-04-28T19:02:23.617Z,10.87
2023-04-28T19:04:50.861Z,10.84
2023-04-28T19:07:17.879Z,10.84
2023-04-28T19:09:45.017Z,10.83
2023-04-28T19:12:11.931Z,10.87
2023-04-28T19:14:39.809Z,10.84
2023-04-28T19:17:07.086Z,10.80
2023-04-28T19:19:34.910Z,10.77
2023-04-28T19:22:04.816Z,10.74
2023-04-28T19:24:33.276Z,10.73
2023-04-28T19:27:05.206Z,10.79
2023-04-28T19:29:33.096Z,10.82
2023-04-28T19:32:00.501Z,10.86
2023-04-28T19:34:30.820Z,10.88
2023-04-28T19:37:00.914Z,10.86
2023-04-28T19:39:29.599Z,10.84
2023-04-28T19:41:56.358Z,10.80
2023-04-28T19:44:30.087Z,10.78
2023-04-28T19:46:57.270Z,10.76
2023-04-28T19:49:24.286Z,10.70
2023-04-28T19:51:51.432Z,10.66
2023-04-28T19:54:18.692Z,10.66
2023-04-28T19:56:48.220Z,10.67
2023-04-28T19:59:15.434Z,10.67
2023-04-28T20:01:43.141Z,10.67
2023-04-28T20:04:10.316Z,10.67
2023-04-28T20:06:38.108Z,10.64
2023-04-28T20:09:05.649Z,10.64
2023-04-28T20:11:32.885Z,10.67
2023-04-28T20:13:59.700Z,10.72
2023-04-28T20:16:26.818Z,10.76
2023-04-28T20:18:53.810Z,10.78
2023-04-28T20:21:20.705Z,10.79
2023-04-28T20:23:47.737Z,10.81
2023-04-28T20:26:15.325Z,10.82
2023-04-28T20:28:46.598Z,10.84
2023-04-28T20:31:14.665Z,10.88
2023-04-28T20:33:41.522Z,10.89
2023-04-28T20:36:08.652Z,10.91
2023-04-28T20:38:36.864Z,10.94
2023-04-28T20:41:03.900Z,10.96
2023-04-28T20:43:31.904Z,10.95
2023-04-28T20:45:58.782Z,10.97
2023-04-28T20:48:25.566Z,11.00
2023-04-28T20:50:54.723Z,11.01
2023-04-28T20:53:22.105Z,11.01
2023-04-28T20:55:52.152Z,11.01
2023-04-28T20:58:19.102Z,11.01
2023-04-28T21:00:46.000Z,11.04
2023-04-28T21:03:15.589Z,11.05
2023-04-28T21:05:45.135Z,11.04
2023-04-28T21:08:12.458Z,11.02
2023-04-28T21:10:40.267Z,11.03
2023-04-28T21:13:09.118Z,11.06
2023-04-28T21:15:37.009Z,11.07
2023-04-28T21:18:04.116Z,11.07
2023-04-28T21:20:31.106Z,11.06
2023-04-28T21:22:57.987Z,11.05
2023-04-28T21:25:25.672Z,11.02
2023-04-28T21:27:52.856Z,10.98
2023-04-28T21:30:20.191Z,10.96
2023-04-28T21:32:47.293Z,10.96
2023-04-28T21:35:15.619Z,10.95
2023-04-28T21:37:42.604Z,10.95
2023-04-28T21:40:09.868Z,10.94
2023-04-28T21:42:37.392Z,10.93
2023-04-28T21:45:05.442Z,10.95
2023-04-28T21:47:32.762Z,10.95
2023-04-28T21:49:59.785Z,10.91
2023-04-28T21:52:26.508Z,10.88
2023-04-28T21:54:53.404Z,10.87
2023-04-28T21:57:20.297Z,10.86
2023-04-28T21:59:47.031Z,10.83
2023-04-28T22:02:13.918Z,10.81
2023-04-28T22:04:41.038Z,10.82
2023-04-28T22:07:08.311Z,10.84
2023-04-28T22:09:35.532Z,10.85
2023-04-28T22:12:02.727Z,10.89
2023-04-28T22:16:59.588Z,10.93
2023-04-28T22:19:27.621Z,10.89
2023-04-28T22:21:54.445Z,10.90
2023-04-28T22:24:21.239Z,10.91
2023-04-28T22:26:48.231Z,10.87
2023-04-28T22:29:15.638Z,10.83
2023-04-28T22:31:42.603Z,10.83
2023-04-28T22:34:09.931Z,10.81
2023-04-28T22:36:36.928Z,10.79
2023-04-28T22:39:04.964Z,10.79
2023-04-28T22:41:32.950Z,10.79
2023-04-28T22:45:15.157Z,10.81
2023-04-28T22:47:43.107Z,10.80
2023-04-28T22:50:10.867Z,10.78
2023-04-28T22:52:37.913Z,10.69
2023-04-28T22:55:05.792Z,10.57
2023-04-28T22:57:32.739Z,10.48
2023-04-28T22:59:59.822Z,10.41
2023-04-28T23:02:27.137Z,10.37
2023-04-28T23:04:54.431Z,10.38
2023-04-28T23:07:21.693Z,10.40
2023-04-28T23:09:48.934Z,10.36
2023-04-28T23:12:16.697Z,10.32
2023-04-28T23:14:43.651Z,10.34
2023-04-28T23:17:11.001Z,10.33
2023-04-28T23:19:39.597Z,10.34
2023-04-28T23:22:09.962Z,10.36
2023-04-28T23:24:38.431Z,10.38
2023-04-28T23:27:05.985Z,10.40
2023-04-28T23:29:33.370Z,10.39
2023-04-28T23:32:00.603Z,10.36
2023-04-28T23:34:27.878Z,10.38
2023-04-28T23:36:54.852Z,10.40
2023-04-28T23:39:22.056Z,10.39
2023-04-28T23:41:49.368Z,10.37
2023-04-28T23:44:17.350Z,10.34
2023-04-28T23:46:44.423Z,10.28
2023-04-28T23:49:11.512Z,10.22
2023-04-28T23:51:39.491Z,10.17
2023-04-28T23:54:06.542Z,10.10
2023-04-28T23:56:33.523Z,10.07
2023-04-28T23:59:00.663Z,10.12
